»·PEaware :: N9273T KAVQ-KBXK

N9273T :: KAVQ-KBXK

FLIGHT INFORMATION

Flight Status: Arrived
Operator: Privately registered:
United States
More flights under this callsign
Pilot: Jim L. (28297)
Aircraft: CESSNA T210 TURBO CENTURION
(T210)
More flights by this aircraft type
Origin: KAVQ Marana Northwest Regl
United States
Destination: KBXK Buckeye Mun
United States
More flights between these airports :: More routes between these airports
Route:
File this flight plan on PilotEdge
Remarks: Alphabet Challenge Arizona Edition
Altitude:
(Current/Filed)
8,500ft
Speed:
(Current/Filed)
140kts
Departed: 23-Sep-20 08:23 AM
Arrived: 23-Sep-20 09:02 AM
Distance/Time
Traveled:
96nm/0:38
Distance/Time
To Go:
Arrived

Flight Plot

Page will automatically refresh every two minutes.

Flight plan parsing failed; only flown route is shown


Map Options




Map Legend


Flown Route
Filed Route
Departure Airport
Arrival Airport
Navaid (VOR, NDB)
Fix

Horizontal Profiles

Position Reports

Time Latitude Longitude Heading Altitude Ground
Speed
23-Sep-20 08:13 32.405680 -111.218671 133 2023ft 0kts
23-Sep-20 08:14 32.405680 -111.218671 133 2023ft 0kts
23-Sep-20 08:15 32.405680 -111.218671 133 2023ft 0kts
23-Sep-20 08:16 32.405680 -111.218671 133 2023ft 0kts
23-Sep-20 08:17 32.405680 -111.218671 133 2023ft 0kts
23-Sep-20 08:18 32.405680 -111.218671 133 2023ft 0kts
23-Sep-20 08:19 32.405427 -111.218190 93 2023ft 10kts
23-Sep-20 08:20 32.405774 -111.214260 133 2027ft 21kts
23-Sep-20 08:21 32.403578 -111.211602 112 2028ft 2kts
23-Sep-20 08:22 32.410477 -111.217999 316 2064ft 95kts
23-Sep-20 08:23 32.430415 -111.247365 306 2880ft 123kts
23-Sep-20 08:24 32.451907 -111.279229 310 3811ft 123kts
23-Sep-20 08:25 32.473825 -111.310397 313 4737ft 123kts
23-Sep-20 08:26 32.496628 -111.340497 313 5658ft 123kts
23-Sep-20 08:27 32.519220 -111.370714 313 6564ft 123kts
23-Sep-20 08:28 32.541769 -111.401056 313 7451ft 123kts
23-Sep-20 08:29 32.564550 -111.431672 314 8329ft 124kts
23-Sep-20 08:30 32.590058 -111.465820 313 8504ft 151kts
23-Sep-20 08:31 32.618442 -111.504528 307 8500ft 158kts
23-Sep-20 08:32 32.644881 -111.546713 310 8500ft 159kts
23-Sep-20 08:33 32.671711 -111.588588 309 8499ft 159kts
23-Sep-20 08:34 32.698509 -111.630510 309 8499ft 159kts
23-Sep-20 08:35 32.725441 -111.672687 309 8499ft 160kts
23-Sep-20 08:36 32.752274 -111.714772 309 8499ft 160kts
23-Sep-20 08:37 32.779125 -111.756917 308 8500ft 160kts
23-Sep-20 08:38 32.806017 -111.799182 309 8499ft 160kts
23-Sep-20 08:39 32.832874 -111.841441 309 8499ft 160kts
23-Sep-20 08:40 32.859706 -111.883705 309 8490ft 160kts
23-Sep-20 08:41 32.886529 -111.926010 309 8481ft 160kts
23-Sep-20 08:42 32.913453 -111.968518 308 8471ft 161kts
23-Sep-20 08:43 32.940493 -112.011257 308 8461ft 162kts
23-Sep-20 08:44 32.967775 -112.054421 308 8451ft 163kts
23-Sep-20 08:45 32.995201 -112.097861 308 8444ft 163kts
23-Sep-20 08:46 33.022456 -112.141105 308 8444ft 163kts
23-Sep-20 08:48 33.049649 -112.184292 307 8444ft 163kts
23-Sep-20 08:49 33.076916 -112.227640 307 8444ft 163kts
23-Sep-20 08:50 33.104063 -112.270848 307 8445ft 162kts
23-Sep-20 08:51 33.130919 -112.313640 307 8444ft 159kts
23-Sep-20 08:52 33.157408 -112.355902 307 8377ft 163kts
23-Sep-20 08:53 33.186438 -112.402291 307 7598ft 181kts
23-Sep-20 08:54 33.215471 -112.448715 308 6609ft 170kts
23-Sep-20 08:55 33.243417 -112.493468 308 5652ft 166kts
23-Sep-20 08:56 33.270909 -112.537535 308 4751ft 165kts
23-Sep-20 08:57 33.298253 -112.581427 307 3853ft 165kts
23-Sep-20 08:58 33.325634 -112.625439 308 2997ft 162kts
23-Sep-20 08:59 33.352088 -112.668001 307 2324ft 157kts
23-Sep-20 09:00 33.386142 -112.687791 2 1633ft 121kts
23-Sep-20 09:01 33.411538 -112.686665 359 1083ft 83kts
23-Sep-20 09:01 33.420852 -112.685531 94 1006ft 6kts
23-Sep-20 09:03 33.420218 -112.683964 82 1005ft 0kts
23-Sep-20 09:04 33.420218 -112.683964 82 1005ft 0kts

Navigation Log

Ident Type
Flight plan parsing failed, navigation log unavailable